Airfield :
LOGIN :

Register | Disclaimer

   EN    FR    IT 

 










Legend :    VFR   Marginal VFR   IFR   Intensive IFR   Very Intensive IFR
Visi :
Ceiling :
>= 8 km
>= 3000ft
5 to 8 km
1000 to 3000 ft
1500m to 5 km
500 to 1000 ft
800 to 1500m
200 to 500 ft
< 800m
< 200 ft
Symbols :   Thunderstorms  Fog  Heavy snow  Heavy precipitations  Wind > 20 kt
SIGMETs :     Misc.  Thunderstorms  Icing  Turbulence  Mountain Waves  Volcanic Ashes







- Airport Elevation : 228 ft
- IATA code : OPO


LPPR - Porto Fr. Sa Carneiro

CURRENT METAR :
  • 210430Z 17005KT 4000 BR OVC002 11/11 Q1032

EXPIRED METARs :
  • 210400Z 16005KT 3500 BR OVC002 11/11 Q1032
  • 210330Z 16005KT 3500 BR OVC002 11/11 Q1032
  • 210300Z 17004KT 3500 BR OVC003 11/11 Q1032
  • 210230Z 15006KT 4000 BR SCT002 BKN004 OVC008 11/11 Q1032
  • 210200Z 14003KT 4000 BR OVC004 11/11 Q1032

TAF TAF LPPR
Valid from the 21 at 00:00 until the 22 at 00:00 UTC


202300Z 2100/2124 16005KT 5000 BR SCT002 BKN004
TEMPO 2100/2109 VRB03KT 1500 DZ BR SCT000 BKN002
PROB30 2100/2109 0100 FG VV001
BECMG 2110/2112 VRB03KT 6000 NSW SCT008 BKN015
BECMG 2116/2119 3000 BR SCT002 BKN004
TEMPO 2120/2124 0200 FG VV001
No reported NOTAMs for that airfield.



MET'MAP, your aeronautical weather chart ! - Copyright ORBIFLY December 2007 - Disclaimer

ORBIFLY MET'MAP TEAM :

Programming & Development : Alexandra Zaïnal
Concept & Development : Baudouin d'Aumeries
Co-Development & Prog : Marc-Olivier Méhu
Technical & hardware support : Manuel Goepfert

Contact : metmap@orbifly.com




SOURCES & CREDITS :

   NOAA